Time;durP1;ratioP1;P1;durP2;ratioP2;P2;SDS_P1;SDS_P2;PMS_P1;PMS_P2;Temp;Humidity;BMP_temperature;BMP_pressure;BME280_temperature;BME280_humidity;BME280_pressure;Samples;Min_cycle;Max_cycle;Signal;HPM_P1;HPM_P2
2024/02/22 00:01:30;;;;;;;8.50;1.75;;;;;;;;;;4920974;29;20043;-89
2024/02/22 00:04:15;;;;;;;4.90;1.88;;;;;;;;;;4912169;29;20102;-87
2024/02/22 00:07:00;;;;;;;4.50;1.95;;;;;;;;;;4909149;29;20059;-85
2024/02/22 00:09:45;;;;;;;2.88;1.48;;;;;;;;;;4927956;29;20027;-86
2024/02/22 00:12:37;;;;;;;3.30;1.63;;;;;;;;;;4913888;29;20024;-86
2024/02/22 00:15:23;;;;;;;3.90;1.70;;;;;;;;;;4911894;29;20225;-86
2024/02/22 00:18:08;;;;;;;1.95;1.30;;;;;;;;;;4920436;29;20031;-84
2024/02/22 00:20:53;;;;;;;5.07;1.88;;;;;;;;;;4912453;29;20024;-84
2024/02/22 00:23:39;;;;;;;6.35;1.80;;;;;;;;;;4908351;29;20100;-84
2024/02/22 00:26:25;;;;;;;4.97;2.03;;;;;;;;;;4905252;29;20116;-85
2024/02/22 00:29:11;;;;;;;2.72;1.52;;;;;;;;;;4912367;29;20036;-85
2024/02/22 00:31:56;;;;;;;3.22;1.73;;;;;;;;;;4908169;29;20475;-85
2024/02/22 00:34:41;;;;;;;2.55;1.40;;;;;;;;;;4912300;29;20118;-84
2024/02/22 00:37:27;;;;;;;4.15;1.92;;;;;;;;;;4899740;29;20103;-83
2024/02/22 00:40:14;;;;;;;3.67;1.55;;;;;;;;;;4906685;29;20024;-84
2024/02/22 00:42:59;;;;;;;5.05;1.67;;;;;;;;;;4913185;29;20032;-83
2024/02/22 00:45:44;;;;;;;4.65;1.90;;;;;;;;;;4914212;29;20088;-84
2024/02/22 00:48:30;;;;;;;4.82;2.03;;;;;;;;;;4899465;29;20036;-83
2024/02/22 00:51:15;;;;;;;5.68;2.47;;;;;;;;;;4906360;29;20115;-85
2024/02/22 00:54:00;;;;;;;3.58;1.65;;;;;;;;;;4908411;29;20036;-84
2024/02/22 00:56:45;;;;;;;2.88;1.70;;;;;;;;;;4892121;29;20451;-85
2024/02/22 00:59:33;;;;;;;2.25;1.83;;;;;;;;;;4885365;29;20024;-85
2024/02/22 01:02:18;;;;;;;2.40;1.40;;;;;;;;;;4888373;29;20031;-86
2024/02/22 01:05:04;;;;;;;2.72;1.63;;;;;;;;;;4903706;29;20119;-84
2024/02/22 01:07:49;;;;;;;2.00;1.40;;;;;;;;;;4896628;29;20052;-87
2024/02/22 01:10:35;;;;;;;3.83;1.80;;;;;;;;;;4908024;29;20035;-85
2024/02/22 01:13:22;;;;;;;3.10;1.35;;;;;;;;;;4904026;29;20040;-85
2024/02/22 01:16:07;;;;;;;2.40;1.60;;;;;;;;;;4903051;29;20032;-86
2024/02/22 01:18:52;;;;;;;2.75;1.60;;;;;;;;;;4896391;29;20024;-85
2024/02/22 01:21:38;;;;;;;3.92;1.55;;;;;;;;;;4902974;29;20110;-84
2024/02/22 01:24:23;;;;;;;2.50;1.60;;;;;;;;;;4905463;29;20063;-84
2024/02/22 01:27:08;;;;;;;3.22;1.88;;;;;;;;;;4905813;29;20026;-82
2024/02/22 01:29:53;;;;;;;3.88;1.73;;;;;;;;;;4896706;29;20028;-82
2024/02/22 01:32:39;;;;;;;3.10;1.70;;;;;;;;;;4905080;29;20068;-82
2024/02/22 01:35:26;;;;;;;3.72;1.85;;;;;;;;;;4899955;29;20118;-82
2024/02/22 01:38:11;;;;;;;2.10;1.60;;;;;;;;;;4901771;29;20028;-82
2024/02/22 01:40:56;;;;;;;3.60;1.98;;;;;;;;;;4905673;29;20131;-82
2024/02/22 01:43:42;;;;;;;2.35;1.60;;;;;;;;;;4898174;29;20031;-83
2024/02/22 01:46:27;;;;;;;4.60;2.15;;;;;;;;;;4915717;29;20249;-83
2024/02/22 01:49:13;;;;;;;3.50;2.05;;;;;;;;;;4893903;29;20435;-83
2024/02/22 01:51:59;;;;;;;2.95;1.65;;;;;;;;;;4910730;29;20144;-82
2024/02/22 01:54:44;;;;;;;2.63;1.70;;;;;;;;;;4903906;29;20098;-83
2024/02/22 01:57:29;;;;;;;3.75;1.45;;;;;;;;;;4910366;29;20028;-83
2024/02/22 02:00:17;;;;;;;3.03;1.40;;;;;;;;;;4903873;29;20016;-83
2024/02/22 02:03:02;;;;;;;2.83;1.60;;;;;;;;;;4888039;29;20087;-83
2024/02/22 02:05:48;;;;;;;3.20;1.60;;;;;;;;;;4906709;29;20106;-83
2024/02/22 02:08:35;;;;;;;2.85;1.45;;;;;;;;;;4907762;29;20032;-84
2024/02/22 02:11:21;;;;;;;5.15;1.63;;;;;;;;;;4895420;29;20043;-84
2024/02/22 02:14:06;;;;;;;3.33;2.20;;;;;;;;;;4903421;29;20056;-83
2024/02/22 02:16:52;;;;;;;4.32;1.50;;;;;;;;;;4910286;29;20043;-82
2024/02/22 02:19:38;;;;;;;3.70;1.67;;;;;;;;;;4903566;29;20373;-83
2024/02/22 02:22:26;;;;;;;3.08;1.30;;;;;;;;;;4911503;29;20024;-87
2024/02/22 02:25:11;;;;;;;4.53;1.63;;;;;;;;;;4890264;29;20043;-87
2024/02/22 02:27:57;;;;;;;2.83;1.27;;;;;;;;;;4912042;29;20043;-87
2024/02/22 02:30:42;;;;;;;1.30;1.17;;;;;;;;;;4912844;29;20024;-88
2024/02/22 02:33:27;;;;;;;2.25;1.30;;;;;;;;;;4915660;29;20111;-87
2024/02/22 02:36:13;;;;;;;2.25;1.38;;;;;;;;;;4899881;29;20315;-87
2024/02/22 02:38:58;;;;;;;3.03;1.40;;;;;;;;;;4922661;29;20028;-89
2024/02/22 02:41:43;;;;;;;4.03;1.40;;;;;;;;;;4905823;29;20031;-87
2024/02/22 02:44:28;;;;;;;2.55;1.27;;;;;;;;;;4913597;29;20114;-86
2024/02/22 02:47:15;;;;;;;3.33;1.17;;;;;;;;;;4914030;29;20024;-85
2024/02/22 02:50:01;;;;;;;1.73;1.20;;;;;;;;;;4907624;29;20019;-85
2024/02/22 02:52:46;;;;;;;2.33;1.42;;;;;;;;;;4905478;29;20024;-86
2024/02/22 02:55:31;;;;;;;1.17;1.08;;;;;;;;;;4910617;29;20032;-86
2024/02/22 02:58:17;;;;;;;1.77;1.00;;;;;;;;;;4912809;29;20040;-85
2024/02/22 03:01:03;;;;;;;1.60;0.90;;;;;;;;;;4896275;29;20024;-85
2024/02/22 03:03:49;;;;;;;1.85;1.02;;;;;;;;;;4918140;29;20031;-86
2024/02/22 03:06:35;;;;;;;2.47;1.10;;;;;;;;;;4901511;29;20115;-86
2024/02/22 03:09:23;;;;;;;1.92;1.52;;;;;;;;;;4912512;29;20023;-88
2024/02/22 03:12:08;;;;;;;1.92;1.30;;;;;;;;;;4917421;29;20030;-87
2024/02/22 03:14:54;;;;;;;2.10;1.08;;;;;;;;;;4908654;29;20048;-80
2024/02/22 03:17:39;;;;;;;2.22;1.17;;;;;;;;;;4901703;29;20035;-78
2024/02/22 03:20:25;;;;;;;2.78;1.33;;;;;;;;;;4920898;29;20028;-83
2024/02/22 03:23:12;;;;;;;1.48;1.15;;;;;;;;;;4911975;29;20020;-83
2024/02/22 03:25:57;;;;;;;2.40;1.27;;;;;;;;;;4908065;29;20111;-85
2024/02/22 03:28:44;;;;;;;2.70;1.40;;;;;;;;;;4906754;29;20040;-82
2024/02/22 03:31:29;;;;;;;1.50;1.20;;;;;;;;;;4924705;29;20160;-84
2024/02/22 03:34:15;;;;;;;2.75;1.30;;;;;;;;;;4907369;29;20036;-85
2024/02/22 03:37:00;;;;;;;5.35;1.40;;;;;;;;;;4901056;29;20027;-85
2024/02/22 03:39:49;;;;;;;3.85;1.40;;;;;;;;;;4915054;29;20031;-85
2024/02/22 03:42:35;;;;;;;3.22;1.38;;;;;;;;;;4910212;29;20110;-83
2024/02/22 03:45:21;;;;;;;3.95;1.33;;;;;;;;;;4915899;29;20023;-83
2024/02/22 03:48:07;;;;;;;2.97;1.30;;;;;;;;;;4916760;29;20024;-85
2024/02/22 03:50:52;;;;;;;2.85;1.58;;;;;;;;;;4905268;29;20035;-84
2024/02/22 03:53:37;;;;;;;3.13;1.55;;;;;;;;;;4904527;29;20043;-84
2024/02/22 03:56:23;;;;;;;2.35;1.30;;;;;;;;;;4909670;29;20027;-83
2024/02/22 03:59:08;;;;;;;2.15;1.40;;;;;;;;;;4905070;29;20344;-81
2024/02/22 04:01:53;;;;;;;3.70;1.80;;;;;;;;;;4911055;29;20390;-84
2024/02/22 04:04:47;;;;;;;1.90;1.30;;;;;;;;;;4904435;29;20043;-83
2024/02/22 04:07:32;;;;;;;4.03;1.60;;;;;;;;;;4910264;29;20031;-83
2024/02/22 04:10:17;;;;;;;2.00;1.20;;;;;;;;;;4929139;29;20032;-82
2024/02/22 04:13:03;;;;;;;1.90;1.10;;;;;;;;;;4930364;29;20036;-82
2024/02/22 04:15:49;;;;;;;4.28;1.30;;;;;;;;;;4929806;29;20043;-82
2024/02/22 04:18:35;;;;;;;1.58;1.13;;;;;;;;;;4929240;28;20039;-84
2024/02/22 04:21:21;;;;;;;3.58;1.30;;;;;;;;;;4918129;29;20534;-81
2024/02/22 04:24:06;;;;;;;2.03;1.20;;;;;;;;;;4922736;29;20131;-81
2024/02/22 04:26:51;;;;;;;2.03;1.25;;;;;;;;;;4909318;29;20079;-85
2024/02/22 04:29:36;;;;;;;3.45;1.40;;;;;;;;;;4906735;29;20056;-84
2024/02/22 04:32:22;;;;;;;2.60;1.30;;;;;;;;;;4907593;29;20027;-85
2024/02/22 04:35:07;;;;;;;3.53;1.30;;;;;;;;;;4895542;29;20031;-84
2024/02/22 04:37:53;;;;;;;3.25;1.45;;;;;;;;;;4884229;29;20167;-83
2024/02/22 04:40:38;;;;;;;2.88;1.20;;;;;;;;;;4899994;29;20035;-84
2024/02/22 04:43:24;;;;;;;1.20;1.10;;;;;;;;;;4909120;29;20027;-84
2024/02/22 04:46:09;;;;;;;1.67;1.20;;;;;;;;;;4912596;29;20042;-84
2024/02/22 04:48:55;;;;;;;3.17;1.55;;;;;;;;;;4885645;29;20062;-84
2024/02/22 04:51:40;;;;;;;2.05;1.33;;;;;;;;;;4906952;29;20332;-85
2024/02/22 04:54:27;;;;;;;2.03;1.20;;;;;;;;;;4916024;29;20119;-83
2024/02/22 04:57:12;;;;;;;2.80;1.50;;;;;;;;;;4910337;29;20110;-82
2024/02/22 04:59:58;;;;;;;1.48;1.15;;;;;;;;;;4913114;29;20031;-83
2024/02/22 05:02:43;;;;;;;1.58;1.38;;;;;;;;;;4899522;29;20036;-84
2024/02/22 05:05:28;;;;;;;2.72;1.70;;;;;;;;;;4927020;29;20043;-84
2024/02/22 05:08:14;;;;;;;4.05;1.23;;;;;;;;;;4893073;29;20110;-84
2024/02/22 05:10:59;;;;;;;2.17;1.30;;;;;;;;;;4909901;29;20032;-85
2024/02/22 05:13:44;;;;;;;2.03;1.30;;;;;;;;;;4908282;29;20047;-86
2024/02/22 05:16:32;;;;;;;2.92;1.30;;;;;;;;;;4907767;29;20036;-85
2024/02/22 05:19:18;;;;;;;2.70;1.23;;;;;;;;;;4891520;29;20060;-85
2024/02/22 05:22:03;;;;;;;1.70;0.95;;;;;;;;;;4900492;29;20479;-85
2024/02/22 05:24:48;;;;;;;1.92;1.30;;;;;;;;;;4903647;29;20116;-86
2024/02/22 05:27:34;;;;;;;2.47;1.15;;;;;;;;;;4904416;29;20030;-87
2024/02/22 05:30:19;;;;;;;2.65;1.30;;;;;;;;;;4899854;29;20032;-85
2024/02/22 05:33:05;;;;;;;1.42;1.10;;;;;;;;;;4925068;29;20462;-85
2024/02/22 05:35:50;;;;;;;2.03;1.15;;;;;;;;;;4904807;29;20027;-88
2024/02/22 05:38:35;;;;;;;2.22;1.40;;;;;;;;;;4899088;29;20114;-83
2024/02/22 05:41:20;;;;;;;1.35;1.00;;;;;;;;;;4899686;29;20027;-83
2024/02/22 05:44:06;;;;;;;4.68;1.20;;;;;;;;;;4904362;29;20518;-82
2024/02/22 05:46:51;;;;;;;1.50;1.40;;;;;;;;;;4915736;29;20047;-82
2024/02/22 05:49:38;;;;;;;3.08;1.30;;;;;;;;;;4900062;29;20115;-83
2024/02/22 05:52:23;;;;;;;3.15;1.30;;;;;;;;;;4895402;29;20039;-83
2024/02/22 05:55:08;;;;;;;2.58;1.17;;;;;;;;;;4901505;29;20171;-83
2024/02/22 05:57:54;;;;;;;1.60;1.40;;;;;;;;;;4912528;29;20039;-82
2024/02/22 06:00:40;;;;;;;3.13;1.25;;;;;;;;;;4914331;29;20024;-81
2024/02/22 06:03:25;;;;;;;2.47;1.38;;;;;;;;;;4897932;29;20123;-82
2024/02/22 06:06:11;;;;;;;2.58;1.40;;;;;;;;;;4899497;29;20030;-81
2024/02/22 06:08:56;;;;;;;2.72;1.20;;;;;;;;;;4926391;29;20063;-83
2024/02/22 06:11:41;;;;;;;4.82;1.60;;;;;;;;;;4909774;29;20027;-82
2024/02/22 06:14:27;;;;;;;5.55;1.80;;;;;;;;;;4892456;29;20445;-91
2024/02/22 06:17:13;;;;;;;2.55;1.52;;;;;;;;;;4904229;29;20051;-85
2024/02/22 06:19:58;;;;;;;4.65;1.30;;;;;;;;;;4892448;29;20491;-85
2024/02/22 06:22:43;;;;;;;3.25;1.70;;;;;;;;;;4904669;29;20042;-88
2024/02/22 06:25:28;;;;;;;2.05;1.42;;;;;;;;;;4901866;29;20471;-87
2024/02/22 06:28:16;;;;;;;3.10;1.33;;;;;;;;;;4903714;29;20082;-91
2024/02/22 06:31:05;;;;;;;1.45;1.10;;;;;;;;;;4913110;29;20172;-85
2024/02/22 06:33:52;;;;;;;2.13;1.17;;;;;;;;;;4905905;29;20102;-91
2024/02/22 06:36:37;;;;;;;1.35;1.00;;;;;;;;;;4897084;29;20039;-92
2024/02/22 06:39:27;;;;;;;2.85;1.30;;;;;;;;;;4900198;29;20062;-91
2024/02/22 06:42:13;;;;;;;1.90;1.30;;;;;;;;;;4899926;29;20032;-91
2024/02/22 06:45:02;;;;;;;2.20;1.35;;;;;;;;;;4910012;29;20031;-91
2024/02/22 06:47:48;;;;;;;2.72;1.50;;;;;;;;;;4889963;29;20036;-92
2024/02/22 06:50:33;;;;;;;2.05;1.70;;;;;;;;;;4901386;29;20052;-92
2024/02/22 06:53:19;;;;;;;1.80;1.20;;;;;;;;;;4906735;29;20479;-92
2024/02/22 06:56:08;;;;;;;2.38;1.20;;;;;;;;;;4908658;29;20115;-92
2024/02/22 06:58:53;;;;;;;3.58;1.30;;;;;;;;;;4908358;29;20036;-93
2024/02/22 07:01:39;;;;;;;1.92;1.52;;;;;;;;;;4909308;29;20088;-92
2024/02/22 07:04:24;;;;;;;3.55;1.75;;;;;;;;;;4902093;29;20115;-90
2024/02/22 07:07:10;;;;;;;3.50;1.80;;;;;;;;;;4919293;29;20032;-90
2024/02/22 07:09:55;;;;;;;2.50;1.58;;;;;;;;;;4908217;29;20130;-92
2024/02/22 08:52:29;;;;;;;;;;;;;;;;;;;;;
2024/02/22 08:55:04;;;;;;;1.92;1.13;;;;;;;;;;4806612;29;20038;-90
2024/02/22 09:08:41;;;;;;;1.52;0.90;;;;;;;;;;4746086;29;20512;-89
2024/02/22 09:14:02;;;;;;;1.10;1.00;;;;;;;;;;4943315;23;20055;-89
2024/02/22 09:16:55;;;;;;;0.90;0.73;;;;;;;;;;4920192;29;20378;-92
2024/02/22 09:19:51;;;;;;;;;;;;;;;;;;;;;
2024/02/22 09:23:19;;;;;;;1.48;0.60;;;;;;;;;;4904831;29;20103;-90
2024/02/22 09:26:29;;;;;;;0.95;0.68;;;;;;;;;;4892963;29;20116;-90
2024/02/22 09:29:42;;;;;;;;;;;;;;;;;;;;;
2024/02/22 09:32:34;;;;;;;0.60;0.60;;;;;;;;;;4893666;29;20043;-91
2024/02/22 09:35:22;;;;;;;0.85;0.73;;;;;;;;;;4913443;29;20039;-89
2024/02/22 09:38:34;;;;;;;1.23;0.80;;;;;;;;;;4926787;29;20092;-89
2024/02/22 09:41:21;;;;;;;1.40;0.60;;;;;;;;;;4908831;29;20055;-89
2024/02/22 09:44:10;;;;;;;1.13;0.70;;;;;;;;;;4916353;29;20024;-88
2024/02/22 09:47:21;;;;;;;1.30;0.85;;;;;;;;;;4916491;29;20035;-89
2024/02/22 10:00:46;;;;;;;0.80;0.65;;;;;;;;;;4869064;29;20029;-90
2024/02/22 10:04:23;;;;;;;2.20;0.70;;;;;;;;;;4846909;29;20034;-89
2024/02/22 10:07:12;;;;;;;1.25;0.70;;;;;;;;;;4814245;29;20041;-89
2024/02/22 10:10:00;;;;;;;1.70;0.80;;;;;;;;;;4824811;29;20086;-88
2024/02/22 10:12:46;;;;;;;0.75;0.68;;;;;;;;;;4845717;29;20407;-89
2024/02/22 10:15:36;;;;;;;1.48;0.60;;;;;;;;;;4869890;29;20039;-89
2024/02/22 10:18:41;;;;;;;;;;;;;;;;;;;;;
2024/02/22 10:21:34;;;;;;;8.13;0.73;;;;;;;;;;4822960;29;20052;-89
2024/02/22 10:24:50;;;;;;;;;;;;;;;;;;;;;
2024/02/22 10:28:16;;;;;;;1.38;0.70;;;;;;;;;;4861506;29;20036;-90
2024/02/22 10:31:12;;;;;;;;;;;;;;;;;;;;;
2024/02/22 10:34:27;;;;;;;1.23;0.65;;;;;;;;;;4901068;29;20440;-89
2024/02/22 10:37:37;;;;;;;0.98;0.70;;;;;;;;;;4909224;29;20036;-89
2024/02/22 10:40:50;;;;;;;0.90;0.90;;;;;;;;;;4901388;29;20052;-88
2024/02/22 10:44:02;;;;;;;0.75;0.70;;;;;;;;;;4919694;29;20024;-89
2024/02/22 10:50:04;;;;;;;2.13;0.73;;;;;;;;;;4919001;29;20378;-90
2024/02/22 10:53:13;;;;;;;1.13;0.70;;;;;;;;;;4904267;29;20376;-89
2024/02/22 10:56:14;;;;;;;1.13;0.70;;;;;;;;;;4849273;29;20037;-90
2024/02/22 11:02:44;;;;;;;0.80;0.80;;;;;;;;;;4921305;29;20052;-88
2024/02/22 11:05:43;;;;;;;1.00;0.80;;;;;;;;;;4918041;29;20103;-89
2024/02/22 11:08:31;;;;;;;0.80;0.60;;;;;;;;;;4924804;29;20086;-88
2024/02/22 11:11:30;;;;;;;0.55;0.55;;;;;;;;;;4918856;29;20030;-89
2024/02/22 11:14:30;;;;;;;0.70;0.70;;;;;;;;;;4918607;29;20044;-89
2024/02/22 11:17:16;;;;;;;;;;;;;;;;;;4923563;29;20046;-89
2024/02/22 11:20:08;;;;;;;0.93;0.60;;;;;;;;;;4920331;29;19950;-89
2024/02/22 11:22:53;;;;;;;1.60;0.70;;;;;;;;;;4921619;29;20059;-88
2024/02/22 11:25:48;;;;;;;0.60;0.60;;;;;;;;;;4919026;29;20023;-89
2024/02/22 11:28:59;;;;;;;1.65;0.82;;;;;;;;;;4923419;29;20039;-89
2024/02/22 11:31:48;;;;;;;0.70;0.70;;;;;;;;;;4936313;29;20032;-89
2024/02/22 11:34:52;;;;;;;0.60;0.60;;;;;;;;;;4918144;29;20042;-89
2024/02/22 11:37:37;;;;;;;2.95;0.93;;;;;;;;;;4918771;29;20032;-88
2024/02/22 11:40:30;;;;;;;0.60;0.60;;;;;;;;;;4902600;29;20056;-89
2024/02/22 11:43:25;;;;;;;4.13;1.70;;;;;;;;;;4918486;29;20030;-89
2024/02/22 11:46:18;;;;;;;1.05;0.93;;;;;;;;;;4913897;29;20019;-90
2024/02/22 11:49:04;;;;;;;2.33;0.93;;;;;;;;;;4928669;29;20095;-89
2024/02/22 11:51:50;;;;;;;1.55;1.02;;;;;;;;;;4916955;29;20079;-89
2024/02/22 11:54:36;;;;;;;0.60;0.60;;;;;;;;;;4919268;29;20190;-90
2024/02/22 11:57:24;;;;;;;0.98;0.68;;;;;;;;;;4929307;29;20074;-89
2024/02/22 12:00:12;;;;;;;3.92;0.82;;;;;;;;;;4915268;29;20028;-89
2024/02/22 12:03:00;;;;;;;2.17;0.70;;;;;;;;;;4924900;29;20011;-89
2024/02/22 12:05:46;;;;;;;0.80;0.80;;;;;;;;;;4954468;29;20039;-88
2024/02/22 12:08:41;;;;;;;0.60;0.60;;;;;;;;;;4927625;29;20083;-88
2024/02/22 12:11:29;;;;;;;1.55;0.60;;;;;;;;;;4917625;29;20056;-88
2024/02/22 12:14:17;;;;;;;1.45;0.85;;;;;;;;;;4905876;29;20050;-88
2024/02/22 12:17:06;;;;;;;0.73;0.65;;;;;;;;;;4898327;29;20043;-91
2024/02/22 12:19:53;;;;;;;1.53;0.80;;;;;;;;;;4909859;29;20145;-91
2024/02/22 12:22:47;;;;;;;1.08;0.60;;;;;;;;;;4913333;29;20024;-89
2024/02/22 12:25:33;;;;;;;0.60;0.60;;;;;;;;;;4901242;29;20024;-88
2024/02/22 12:28:23;;;;;;;0.77;0.77;;;;;;;;;;4898501;29;20028;-89
2024/02/22 12:31:09;;;;;;;1.25;0.60;;;;;;;;;;4899312;29;20119;-88
2024/02/22 12:33:57;;;;;;;1.23;0.70;;;;;;;;;;4906263;29;20043;-88
2024/02/22 12:36:45;;;;;;;0.67;0.67;;;;;;;;;;4921275;29;20084;-89
2024/02/22 12:39:33;;;;;;;0.60;0.60;;;;;;;;;;4913944;29;20295;-89
2024/02/22 12:42:22;;;;;;;0.85;0.80;;;;;;;;;;4923983;29;20066;-88
2024/02/22 12:45:10;;;;;;;0.88;0.70;;;;;;;;;;4901270;29;20024;-89
2024/02/22 12:47:56;;;;;;;0.75;0.68;;;;;;;;;;4899795;29;20028;-89
2024/02/22 12:50:41;;;;;;;2.88;0.73;;;;;;;;;;4902873;29;20490;-88
2024/02/22 12:53:26;;;;;;;0.80;0.70;;;;;;;;;;4897667;29;20420;-89
2024/02/22 12:56:12;;;;;;;1.52;0.60;;;;;;;;;;4897440;29;20042;-90
2024/02/22 12:58:58;;;;;;;0.70;0.70;;;;;;;;;;4887076;29;20028;-90
2024/02/22 13:01:46;;;;;;;1.63;0.90;;;;;;;;;;4905656;29;20028;-89
2024/02/22 13:04:34;;;;;;;0.60;0.60;;;;;;;;;;4900316;29;20360;-89
2024/02/22 13:07:22;;;;;;;0.77;0.60;;;;;;;;;;4897266;29;20440;-89
2024/02/22 13:10:17;;;;;;;0.73;0.73;;;;;;;;;;4898769;29;20035;-89
2024/02/22 13:13:03;;;;;;;0.77;0.77;;;;;;;;;;4917100;29;20097;-89
2024/02/22 13:15:49;;;;;;;0.70;0.70;;;;;;;;;;4933407;29;20038;-89
2024/02/22 13:18:38;;;;;;;0.65;0.65;;;;;;;;;;4916139;29;20027;-89
2024/02/22 13:21:26;;;;;;;1.02;0.70;;;;;;;;;;4928508;29;20024;-90
2024/02/22 13:24:19;;;;;;;0.70;0.70;;;;;;;;;;4901184;29;20028;-89
2024/02/22 13:27:14;;;;;;;2.42;0.80;;;;;;;;;;4929967;29;20032;-89
2024/02/22 13:30:12;;;;;;;1.40;1.00;;;;;;;;;;4931567;29;20055;-90
2024/02/22 13:33:03;;;;;;;0.85;0.70;;;;;;;;;;4916592;29;20024;-89
2024/02/22 13:35:51;;;;;;;0.82;0.68;;;;;;;;;;4938801;29;20046;-90
2024/02/22 13:38:56;;;;;;;7.00;3.42;;;;;;;;;;4929512;29;20027;-89
2024/02/22 13:41:50;;;;;;;2.60;1.23;;;;;;;;;;4930923;29;20580;-88
2024/02/22 13:44:45;;;;;;;1.95;0.80;;;;;;;;;;4947752;28;20123;-89
2024/02/22 13:47:33;;;;;;;1.55;0.90;;;;;;;;;;4920194;29;20030;-88
2024/02/22 13:50:34;;;;;;;0.82;0.80;;;;;;;;;;4940611;29;20031;-88
2024/02/22 13:53:25;;;;;;;1.52;0.82;;;;;;;;;;4931731;29;20030;-90
2024/02/22 13:56:14;;;;;;;1.30;0.80;;;;;;;;;;4946144;29;20046;-90
2024/02/22 13:59:00;;;;;;;0.70;0.70;;;;;;;;;;4940503;29;20114;-89
2024/02/22 14:01:46;;;;;;;0.98;0.80;;;;;;;;;;4944119;28;20181;-88
2024/02/22 14:04:31;;;;;;;2.15;0.93;;;;;;;;;;4923588;29;20112;-87
2024/02/22 14:07:19;;;;;;;2.05;0.70;;;;;;;;;;4933594;29;20024;-86
2024/02/22 14:10:04;;;;;;;1.95;1.00;;;;;;;;;;4918207;29;20024;-84
2024/02/22 14:12:50;;;;;;;0.90;0.70;;;;;;;;;;4929530;29;20091;-83
2024/02/22 14:15:38;;;;;;;2.65;0.88;;;;;;;;;;4923439;29;20039;-84
2024/02/22 14:18:24;;;;;;;0.98;0.60;;;;;;;;;;4934407;29;20103;-85
2024/02/22 14:21:13;;;;;;;3.00;0.80;;;;;;;;;;4926396;29;20020;-82
2024/02/22 14:23:58;;;;;;;1.30;1.00;;;;;;;;;;4937653;29;20024;-82
2024/02/22 14:26:45;;;;;;;0.77;0.77;;;;;;;;;;4923674;29;20046;-83
2024/02/22 14:29:30;;;;;;;1.38;0.80;;;;;;;;;;4930142;29;20024;-81
2024/02/22 14:32:17;;;;;;;1.40;0.70;;;;;;;;;;4930085;29;20039;-84
2024/02/22 14:35:02;;;;;;;1.15;0.70;;;;;;;;;;4927501;29;20036;-83
2024/02/22 14:37:47;;;;;;;1.50;0.90;;;;;;;;;;4925102;29;20107;-85
2024/02/22 14:40:36;;;;;;;1.77;0.88;;;;;;;;;;4942965;29;20360;-84
2024/02/22 14:43:21;;;;;;;2.38;1.08;;;;;;;;;;4928873;29;20031;-84
2024/02/22 14:46:08;;;;;;;1.02;0.90;;;;;;;;;;4930627;29;20035;-84
2024/02/22 14:48:54;;;;;;;0.77;0.77;;;;;;;;;;4934004;29;20028;-90
2024/02/22 14:51:42;;;;;;;1.02;0.75;;;;;;;;;;4934597;29;20063;-90
2024/02/22 14:54:30;;;;;;;0.80;0.73;;;;;;;;;;4933811;29;20078;-87
2024/02/22 14:57:16;;;;;;;1.08;0.73;;;;;;;;;;4930519;29;20038;-86
2024/02/22 15:00:10;;;;;;;0.85;0.70;;;;;;;;;;4926695;29;20024;-87
2024/02/22 15:02:56;;;;;;;0.98;0.90;;;;;;;;;;4921230;29;20024;-87
2024/02/22 15:05:41;;;;;;;0.85;0.68;;;;;;;;;;4927725;29;20146;-87
2024/02/22 15:08:29;;;;;;;1.23;0.73;;;;;;;;;;4912098;29;20035;-86
2024/02/22 15:11:14;;;;;;;0.95;0.70;;;;;;;;;;4911737;29;20032;-87
2024/02/22 15:13:59;;;;;;;0.73;0.60;;;;;;;;;;4923636;29;20067;-87
2024/02/22 15:16:46;;;;;;;0.88;0.80;;;;;;;;;;4913949;29;20123;-90
2024/02/22 15:19:35;;;;;;;0.73;0.68;;;;;;;;;;4915330;29;20023;-88
2024/02/22 15:22:20;;;;;;;1.10;0.70;;;;;;;;;;4928281;29;20015;-89
2024/02/22 15:25:06;;;;;;;0.80;0.80;;;;;;;;;;4921233;29;20032;-89
2024/02/22 15:27:51;;;;;;;0.88;0.80;;;;;;;;;;4913021;29;20099;-85
2024/02/22 15:30:37;;;;;;;0.70;0.70;;;;;;;;;;4912951;29;20106;-85
2024/02/22 15:33:23;;;;;;;1.35;1.00;;;;;;;;;;4911241;29;20033;-83
2024/02/22 15:36:09;;;;;;;2.88;0.75;;;;;;;;;;4908584;29;20042;-84
2024/02/22 15:38:54;;;;;;;1.05;0.70;;;;;;;;;;4912284;29;20034;-84
2024/02/22 15:41:42;;;;;;;1.38;0.77;;;;;;;;;;4916828;29;20024;-85
2024/02/22 15:44:28;;;;;;;1.15;0.85;;;;;;;;;;4903937;29;20032;-84
2024/02/22 15:47:14;;;;;;;0.77;0.75;;;;;;;;;;4914088;29;20019;-84
2024/02/22 15:50:02;;;;;;;0.85;0.70;;;;;;;;;;4917318;29;20031;-84
2024/02/22 15:52:48;;;;;;;0.90;0.90;;;;;;;;;;4904158;29;20088;-83
2024/02/22 15:55:33;;;;;;;1.85;0.80;;;;;;;;;;4908382;29;20032;-86
2024/02/22 15:58:18;;;;;;;1.20;0.82;;;;;;;;;;4912613;29;20054;-86
2024/02/22 16:01:04;;;;;;;0.82;0.68;;;;;;;;;;4913090;29;20083;-86
2024/02/22 16:03:50;;;;;;;1.02;0.90;;;;;;;;;;4918132;29;20024;-85
2024/02/22 16:06:37;;;;;;;0.80;0.80;;;;;;;;;;4915408;29;20071;-86
2024/02/22 16:09:22;;;;;;;1.17;0.80;;;;;;;;;;4929074;29;20028;-85
2024/02/22 16:12:07;;;;;;;1.30;0.88;;;;;;;;;;4916097;29;20135;-87
2024/02/22 16:14:52;;;;;;;1.73;0.93;;;;;;;;;;4912153;29;20037;-86
2024/02/22 16:17:39;;;;;;;1.23;1.00;;;;;;;;;;4905755;29;20040;-86
2024/02/22 16:20:25;;;;;;;2.38;0.85;;;;;;;;;;4908735;29;20027;-87
2024/02/22 16:23:11;;;;;;;2.35;0.80;;;;;;;;;;4915680;29;20024;-86
2024/02/22 16:25:58;;;;;;;1.45;1.10;;;;;;;;;;4917801;29;20087;-87
2024/02/22 16:28:43;;;;;;;4.05;1.15;;;;;;;;;;4917183;29;20058;-86
2024/02/22 16:31:32;;;;;;;1.38;0.85;;;;;;;;;;4917844;29;20036;-86
2024/02/22 16:34:17;;;;;;;0.80;0.80;;;;;;;;;;4913306;29;20032;-86
2024/02/22 16:37:12;;;;;;;0.95;0.80;;;;;;;;;;4909284;29;20027;-87
2024/02/22 16:43:11;;;;;;;2.53;1.13;;;;;;;;;;4914539;29;20383;-92
2024/02/22 16:46:03;;;;;;;2.65;1.00;;;;;;;;;;4918429;29;20545;-86
2024/02/22 16:48:48;;;;;;;2.38;1.10;;;;;;;;;;4908984;29;20043;-83
2024/02/22 16:51:34;;;;;;;2.20;1.30;;;;;;;;;;4915236;29;20086;-84
2024/02/22 16:54:19;;;;;;;1.15;0.80;;;;;;;;;;4917456;29;20074;-83
2024/02/22 16:57:05;;;;;;;3.17;1.10;;;;;;;;;;4914898;29;20039;-84
2024/02/22 16:59:52;;;;;;;1.77;1.50;;;;;;;;;;4917238;29;20027;-84
2024/02/22 17:02:38;;;;;;;1.00;0.90;;;;;;;;;;4910701;29;20031;-84
2024/02/22 17:05:25;;;;;;;2.63;0.90;;;;;;;;;;4910728;29;20432;-83
2024/02/22 17:08:10;;;;;;;1.48;1.13;;;;;;;;;;4915658;29;20027;-83
2024/02/22 17:10:55;;;;;;;1.25;1.08;;;;;;;;;;4910371;29;20043;-90
2024/02/22 17:20:23;;;;;;;1.25;0.90;;;;;;;;;;4897902;29;20533;-90
2024/02/22 17:23:12;;;;;;;0.95;0.80;;;;;;;;;;4894116;29;20119;-89
2024/02/22 17:25:57;;;;;;;2.92;1.10;;;;;;;;;;4865433;29;20029;-90
2024/02/22 17:28:43;;;;;;;1.25;1.00;;;;;;;;;;4873139;29;20032;-88
2024/02/22 17:31:31;;;;;;;1.10;1.00;;;;;;;;;;4893596;29;20032;-89
2024/02/22 17:34:24;;;;;;;2.13;1.17;;;;;;;;;;4908112;29;20028;-87
2024/02/22 17:37:10;;;;;;;2.65;1.50;;;;;;;;;;4897828;29;20107;-91
2024/02/22 17:40:06;;;;;;;3.60;1.25;;;;;;;;;;4892185;29;20116;-91
2024/02/22 17:43:08;;;;;;;1.88;1.20;;;;;;;;;;4857254;29;20049;-91
2024/02/22 17:45:53;;;;;;;2.03;1.00;;;;;;;;;;4839750;29;20206;-90
2024/02/22 17:48:39;;;;;;;2.22;0.80;;;;;;;;;;4899436;29;20028;-85
2024/02/22 17:51:28;;;;;;;4.40;1.75;;;;;;;;;;4892256;29;20497;-86
2024/02/22 17:54:13;;;;;;;3.05;1.45;;;;;;;;;;4895369;29;20027;-86
2024/02/22 17:56:59;;;;;;;0.88;0.88;;;;;;;;;;4885840;29;20032;-86
2024/02/22 17:59:48;;;;;;;2.40;1.05;;;;;;;;;;4894412;29;20039;-90
2024/02/22 18:02:35;;;;;;;1.75;1.10;;;;;;;;;;4888998;29;20083;-90
2024/02/22 18:08:48;;;;;;;1.23;0.90;;;;;;;;;;4866417;29;20036;-91
2024/02/22 18:12:01;;;;;;;1.00;0.90;;;;;;;;;;4896474;29;20034;-89
2024/02/22 18:24:56;;;;;;;0.80;0.80;;;;;;;;;;4917632;29;20071;-90
2024/02/22 18:27:43;;;;;;;2.25;0.75;;;;;;;;;;4922550;29;20024;-88
2024/02/22 18:30:29;;;;;;;1.65;0.80;;;;;;;;;;4925431;29;20463;-87
2024/02/22 18:33:15;;;;;;;1.67;0.95;;;;;;;;;;4924499;29;20032;-87
2024/02/22 18:36:01;;;;;;;2.40;0.95;;;;;;;;;;4930147;29;20114;-87
2024/02/22 18:38:46;;;;;;;3.05;1.00;;;;;;;;;;4950172;28;20052;-88
2024/02/22 18:41:32;;;;;;;1.35;1.02;;;;;;;;;;4943621;29;20027;-89
2024/02/22 18:44:17;;;;;;;1.35;1.02;;;;;;;;;;4932589;29;20092;-89
2024/02/22 18:47:06;;;;;;;1.10;1.00;;;;;;;;;;4944847;29;20123;-90
2024/02/22 18:50:03;;;;;;;1.07;0.87;;;;;;;;;;4927806;29;20035;-88
2024/02/22 18:52:48;;;;;;;1.63;0.90;;;;;;;;;;4938867;29;20286;-90
2024/02/22 18:55:45;;;;;;;;;;;;;;;;;;;;;
2024/02/22 18:58:31;;;;;;;0.80;0.80;;;;;;;;;;4936300;29;20031;-89
2024/02/22 19:01:34;;;;;;;1.13;0.93;;;;;;;;;;4932057;29;20511;-90
2024/02/22 19:04:22;;;;;;;0.82;0.65;;;;;;;;;;4925152;29;20028;-88
2024/02/22 19:07:27;;;;;;;2.55;0.90;;;;;;;;;;4933707;29;20024;-88
2024/02/22 19:10:14;;;;;;;3.50;0.90;;;;;;;;;;4920421;29;20132;-89
2024/02/22 19:19:33;;;;;;;1.25;0.98;;;;;;;;;;4781464;29;20046;-89
2024/02/22 19:22:19;;;;;;;0.95;0.93;;;;;;;;;;4790185;29;20059;-87
2024/02/22 19:25:05;;;;;;;1.52;1.00;;;;;;;;;;4786175;29;20511;-88
2024/02/22 19:27:50;;;;;;;1.85;0.98;;;;;;;;;;4929592;29;20627;-89
2024/02/22 19:30:38;;;;;;;3.00;0.95;;;;;;;;;;4928186;29;20032;-87
2024/02/22 19:33:23;;;;;;;1.85;1.00;;;;;;;;;;4924268;29;20055;-90
2024/02/22 19:36:09;;;;;;;0.90;0.90;;;;;;;;;;4930573;29;20028;-89
2024/02/22 19:38:54;;;;;;;1.10;1.00;;;;;;;;;;4924155;29;20075;-90